Time;durP1;ratioP1;P1;durP2;ratioP2;P2;SDS_P1;SDS_P2;PMS_P1;PMS_P2;Temp;Humidity;BMP_temperature;BMP_pressure;BME280_temperature;BME280_humidity;BME280_pressure;Samples;Min_cycle;Max_cycle;Signal;HPM_P1;HPM_P2
2023/03/31 00:00:45;;;;;;;;;;;18.40;50.60;;;;;;5097385;28;20371;-70
2023/03/31 00:03:11;;;;;;;;;;;18.40;50.60;;;;;;5097597;28;19920;-70
2023/03/31 00:05:37;;;;;;;;;;;18.40;50.60;;;;;;5097592;28;19973;-70
2023/03/31 00:08:03;;;;;;;;;;;18.30;50.60;;;;;;5097641;28;19923;-70
2023/03/31 00:10:30;;;;;;;;;;;18.30;50.60;;;;;;5097637;28;19969;-70
2023/03/31 00:12:56;;;;;;;;;;;18.40;50.70;;;;;;5097859;28;20397;-70
2023/03/31 00:15:22;;;;;;;;;;;18.30;50.60;;;;;;5097756;28;19923;-71
2023/03/31 00:17:48;;;;;;;;;;;18.30;50.60;;;;;;5097423;28;20019;-70
2023/03/31 00:20:14;;;;;;;;;;;18.30;50.60;;;;;;5115653;28;19924;-70
2023/03/31 00:22:41;;;;;;;;;;;18.30;50.70;;;;;;5115547;28;20434;-70
2023/03/31 00:25:07;;;;;;;;;;;18.30;50.60;;;;;;5097554;28;19923;-70
2023/03/31 00:27:33;;;;;;;;;;;18.30;50.70;;;;;;5097169;28;19927;-70
2023/03/31 00:29:58;;;;;;;;;;;18.30;50.70;;;;;;5097473;28;19919;-69
2023/03/31 00:32:24;;;;;;;;;;;18.30;50.70;;;;;;5097046;28;20010;-70
2023/03/31 00:34:49;;;;;;;;;;;18.30;50.70;;;;;;5115347;28;19943;-70
2023/03/31 00:37:15;;;;;;;;;;;18.30;50.70;;;;;;5096986;28;19924;-70
2023/03/31 00:39:41;;;;;;;;;;;18.20;50.70;;;;;;5097088;28;19924;-70
2023/03/31 00:42:11;;;;;;;;;;;18.30;50.80;;;;;;5096869;28;20289;-70
2023/03/31 00:44:57;;;;;;;;;;;18.20;50.70;;;;;;5096992;28;19926;-72
2023/03/31 00:47:22;;;;;;;;;;;18.20;50.70;;;;;;5096963;28;19980;-72
2023/03/31 00:49:50;;;;;;;;;;;18.20;50.70;;;;;;5097053;28;19920;-70
2023/03/31 00:52:18;;;;;;;;;;;18.30;50.70;;;;;;5097058;28;19932;-70
2023/03/31 00:54:45;;;;;;;;;;;18.20;50.70;;;;;;5097053;28;19959;-70
2023/03/31 00:57:12;;;;;;;;;;;18.20;50.70;;;;;;5096780;28;19926;-70
2023/03/31 00:59:39;;;;;;;;;;;18.20;50.70;;;;;;5096423;28;20382;-70
2023/03/31 01:02:05;;;;;;;;;;;18.20;50.70;;;;;;5114861;28;20336;-70
2023/03/31 01:04:32;;;;;;;;;;;18.20;50.70;;;;;;5096832;28;19969;-70
2023/03/31 01:07:02;;;;;;;;;;;18.20;50.70;;;;;;5096855;28;19923;-71
2023/03/31 01:09:33;;;;;;;;;;;18.10;50.70;;;;;;5096537;28;19919;-70
2023/03/31 01:12:00;;;;;;;;;;;18.10;50.70;;;;;;5096405;28;19972;-70
2023/03/31 01:14:26;;;;;;;;;;;18.10;50.80;;;;;;5096240;28;20374;-70
2023/03/31 01:16:52;;;;;;;;;;;18.10;50.90;;;;;;5096620;28;19926;-70
2023/03/31 01:19:22;;;;;;;;;;;18.10;51.00;;;;;;5096112;28;19924;-70
2023/03/31 01:22:08;;;;;;;;;;;18.00;51.00;;;;;;5114443;28;20154;-70
2023/03/31 01:24:46;;;;;;;;;;;18.00;51.00;;;;;;5114178;28;19920;-70
2023/03/31 01:27:32;;;;;;;;;;;18.00;51.10;;;;;;5096365;28;19945;-70
2023/03/31 01:30:03;;;;;;;;;;;18.00;51.10;;;;;;5114148;28;20275;-71
2023/03/31 01:32:45;;;;;;;;;;;17.90;51.10;;;;;;5096220;28;20008;-70
2023/03/31 01:35:26;;;;;;;;;;;17.90;51.20;;;;;;5096105;28;19920;-70
2023/03/31 01:38:03;;;;;;;;;;;17.90;51.30;;;;;;5095911;28;19919;-70
2023/03/31 01:40:36;;;;;;;;;;;17.90;51.30;;;;;;5095713;28;19923;-70
2023/03/31 01:43:16;;;;;;;;;;;17.90;51.40;;;;;;5096082;28;20366;-71
2023/03/31 01:48:42;;;;;;;;;;;17.80;51.40;;;;;;5090000;28;19913;-70
2023/03/31 01:51:16;;;;;;;;;;;17.80;51.40;;;;;;5088844;28;19926;-70
2023/03/31 01:54:01;;;;;;;;;;;17.80;51.40;;;;;;5088860;28;19974;-70
2023/03/31 01:56:33;;;;;;;;;;;17.90;51.40;;;;;;5088828;28;19927;-71
2023/03/31 01:59:07;;;;;;;;;;;18.30;51.10;;;;;;5088366;28;19920;-70
2023/03/31 02:01:36;;;;;;;;;;;18.60;50.50;;;;;;5088728;28;19922;-70
2023/03/31 02:04:06;;;;;;;;;;;19.10;49.60;;;;;;5089560;28;19926;-70
2023/03/31 02:06:34;;;;;;;;;;;19.60;48.70;;;;;;5088385;28;19932;-70
2023/03/31 02:09:02;;;;;;;;;;;20.20;47.70;;;;;;5088325;28;20398;-70
2023/03/31 02:11:28;;;;;;;;;;;20.80;46.50;;;;;;5088159;28;20429;-70
2023/03/31 02:13:55;;;;;;;;;;;21.40;45.40;;;;;;5088187;28;19934;-71
2023/03/31 02:16:23;;;;;;;;;;;22.00;44.30;;;;;;5089370;28;19975;-70
2023/03/31 02:18:49;;;;;;;;;;;22.50;43.40;;;;;;5088317;28;19920;-70
2023/03/31 02:21:15;;;;;;;;;;;22.90;42.50;;;;;;5087994;28;19959;-70
2023/03/31 02:23:42;;;;;;;;;;;23.30;41.70;;;;;;5088279;28;20380;-70
2023/03/31 02:26:10;;;;;;;;;;;23.60;41.20;;;;;;5087818;28;19931;-70
2023/03/31 02:28:36;;;;;;;;;;;23.90;40.80;;;;;;5087914;28;20364;-70
2023/03/31 02:33:58;;;;;;;;;;;24.20;40.20;;;;;;5089966;28;19912;-70
2023/03/31 02:36:23;;;;;;;;;;;24.20;40.10;;;;;;5088532;28;20290;-70
2023/03/31 02:38:52;;;;;;;;;;;24.20;39.90;;;;;;5088739;28;19926;-70
2023/03/31 02:41:18;;;;;;;;;;;24.10;39.90;;;;;;5088843;28;20375;-70
2023/03/31 02:43:43;;;;;;;;;;;24.00;40.10;;;;;;5088470;28;20026;-70
2023/03/31 02:46:10;;;;;;;;;;;23.80;40.20;;;;;;5088592;28;19925;-70
2023/03/31 02:48:38;;;;;;;;;;;23.70;40.50;;;;;;5088445;28;19928;-70
2023/03/31 02:54:06;;;;;;;;;;;23.30;41.00;;;;;;5089961;28;20260;-70
2023/03/31 02:56:52;;;;;;;;;;;23.00;41.20;;;;;;5088506;28;19920;-70
2023/03/31 02:59:32;;;;;;;;;;;22.90;41.60;;;;;;5088351;28;20007;-70
2023/03/31 03:02:06;;;;;;;;;;;22.60;41.90;;;;;;5088732;28;19921;-70
2023/03/31 03:07:31;;;;;;;;;;;22.30;42.50;;;;;;5110305;27;19916;-70
2023/03/31 03:12:41;;;;;;;;;;;22.10;42.70;;;;;;5089856;28;19913;-70
2023/03/31 03:15:10;;;;;;;;;;;22.00;42.70;;;;;;5088946;28;19964;-70
2023/03/31 03:20:17;;;;;;;;;;;21.90;42.90;;;;;;5110683;27;19912;-70
2023/03/31 03:22:43;;;;;;;;;;;21.90;43.00;;;;;;5108818;28;19920;-70
2023/03/31 03:25:10;;;;;;;;;;;21.90;43.10;;;;;;5109141;28;19927;-70
2023/03/31 03:27:36;;;;;;;;;;;21.90;43.10;;;;;;5109139;28;19920;-69
2023/03/31 03:30:03;;;;;;;;;;;21.90;43.10;;;;;;5108778;28;20394;-70
2023/03/31 03:32:29;;;;;;;;;;;21.90;43.00;;;;;;5109969;28;20013;-70
2023/03/31 03:34:55;;;;;;;;;;;22.00;42.90;;;;;;5108710;28;19920;-69
2023/03/31 03:37:21;;;;;;;;;;;22.00;42.80;;;;;;5108848;28;19989;-68
2023/03/31 03:39:46;;;;;;;;;;;22.10;42.80;;;;;;5108643;28;19924;-68
2023/03/31 03:42:12;;;;;;;;;;;22.10;42.70;;;;;;5108588;28;19920;-69
2023/03/31 03:44:37;;;;;;;;;;;22.20;42.60;;;;;;5108793;28;19923;-70
2023/03/31 03:47:03;;;;;;;;;;;22.20;42.50;;;;;;5108444;28;20007;-68
2023/03/31 03:49:28;;;;;;;;;;;22.30;42.50;;;;;;5108306;28;19920;-69
2023/03/31 03:51:54;;;;;;;;;;;22.30;42.40;;;;;;5108407;28;19927;-68
2023/03/31 03:54:19;;;;;;;;;;;22.40;42.40;;;;;;5109625;28;19981;-68
2023/03/31 03:56:45;;;;;;;;;;;22.40;42.40;;;;;;5108256;28;19920;-69
2023/03/31 03:59:11;;;;;;;;;;;22.40;42.20;;;;;;5108278;28;20034;-69
2023/03/31 04:01:36;;;;;;;;;;;22.40;42.20;;;;;;5109390;28;19920;-69
2023/03/31 04:04:02;;;;;;;;;;;22.40;42.20;;;;;;5108144;28;19920;-69
2023/03/31 04:06:28;;;;;;;;;;;22.40;42.20;;;;;;5109634;28;19994;-69
2023/03/31 04:08:53;;;;;;;;;;;22.40;42.20;;;;;;5108042;28;19920;-69
2023/03/31 04:11:19;;;;;;;;;;;22.30;42.20;;;;;;5108479;28;19920;-69
2023/03/31 04:13:45;;;;;;;;;;;22.30;42.30;;;;;;5109258;28;20435;-69
2023/03/31 04:16:11;;;;;;;;;;;22.20;42.40;;;;;;5109231;28;19927;-69
2023/03/31 04:18:41;;;;;;;;;;;22.20;42.50;;;;;;5108809;28;19924;-69
2023/03/31 04:21:11;;;;;;;;;;;22.10;42.50;;;;;;5109295;28;19952;-69
2023/03/31 04:23:37;;;;;;;;;;;22.10;42.50;;;;;;5108063;28;20355;-69
2023/03/31 04:26:07;;;;;;;;;;;22.10;42.60;;;;;;5109048;28;20058;-69
2023/03/31 04:28:33;;;;;;;;;;;22.10;42.70;;;;;;5107783;28;19959;-69
2023/03/31 04:30:59;;;;;;;;;;;22.00;42.70;;;;;;5097309;28;19927;-69
2023/03/31 04:33:25;;;;;;;;;;;22.00;42.70;;;;;;5094047;28;19920;-68
2023/03/31 04:35:52;;;;;;;;;;;22.00;42.80;;;;;;5095285;28;19970;-69
2023/03/31 04:38:18;;;;;;;;;;;22.00;42.80;;;;;;5093899;28;19928;-69
2023/03/31 04:40:45;;;;;;;;;;;22.00;42.80;;;;;;5094248;28;19926;-68
2023/03/31 04:43:10;;;;;;;;;;;22.00;42.80;;;;;;5076967;28;19920;-69
2023/03/31 04:45:36;;;;;;;;;;;22.00;42.90;;;;;;5094059;28;19969;-69
2023/03/31 04:48:01;;;;;;;;;;;21.90;42.80;;;;;;5095107;28;19924;-69
2023/03/31 04:50:27;;;;;;;;;;;22.00;42.90;;;;;;5095459;28;19960;-68
2023/03/31 04:52:52;;;;;;;;;;;21.90;42.80;;;;;;5094038;28;19920;-68
2023/03/31 04:55:18;;;;;;;;;;;21.90;42.90;;;;;;5127836;27;20295;-68
2023/03/31 04:57:44;;;;;;;;;;;22.00;42.80;;;;;;5094890;28;19919;-68
2023/03/31 05:00:10;;;;;;;;;;;22.00;42.80;;;;;;5093392;28;19924;-68
2023/03/31 05:02:35;;;;;;;;;;;22.00;42.80;;;;;;5093476;28;19923;-68
2023/03/31 05:05:01;;;;;;;;;;;22.00;42.70;;;;;;5093696;28;19984;-68
2023/03/31 05:07:26;;;;;;;;;;;22.00;42.70;;;;;;5094726;28;19991;-68
2023/03/31 05:09:52;;;;;;;;;;;22.00;42.70;;;;;;5093418;28;19920;-68
2023/03/31 05:12:17;;;;;;;;;;;22.00;42.70;;;;;;5093300;28;20315;-68
2023/03/31 05:14:43;;;;;;;;;;;22.00;42.70;;;;;;5094556;28;19965;-68
2023/03/31 05:17:08;;;;;;;;;;;22.00;42.70;;;;;;5093134;28;20381;-68
2023/03/31 05:19:34;;;;;;;;;;;22.00;42.60;;;;;;5092921;28;19992;-68
2023/03/31 05:22:00;;;;;;;;;;;22.00;42.60;;;;;;5093053;28;19920;-68
2023/03/31 05:24:27;;;;;;;;;;;22.00;42.60;;;;;;5093038;28;20007;-68
2023/03/31 05:26:53;;;;;;;;;;;22.00;42.60;;;;;;5094298;28;19963;-68
2023/03/31 05:29:18;;;;;;;;;;;22.00;42.60;;;;;;5094340;28;19959;-68
2023/03/31 05:31:44;;;;;;;;;;;22.10;42.60;;;;;;5092980;28;20006;-68
2023/03/31 05:34:10;;;;;;;;;;;22.00;42.60;;;;;;5091934;28;19924;-66
2023/03/31 05:36:36;;;;;;;;;;;22.00;42.70;;;;;;5094222;28;19924;-66
2023/03/31 05:39:02;;;;;;;;;;;22.00;43.20;;;;;;5092835;28;19973;-66
2023/03/31 05:41:28;;;;;;;;;;;21.80;43.50;;;;;;5081778;28;20396;-66
2023/03/31 05:43:53;;;;;;;;;;;21.70;43.90;;;;;;5091371;28;19919;-68
2023/03/31 05:46:19;;;;;;;;;;;21.70;44.10;;;;;;5093433;28;19967;-68
2023/03/31 05:48:44;;;;;;;;;;;21.60;44.30;;;;;;5093103;28;20363;-68
2023/03/31 05:51:10;;;;;;;;;;;21.70;44.30;;;;;;5091973;28;19927;-68
2023/03/31 05:53:35;;;;;;;;;;;21.80;44.30;;;;;;5092789;28;19998;-68
2023/03/31 05:56:03;;;;;;;;;;;21.80;44.00;;;;;;5092459;28;19924;-68
2023/03/31 05:58:28;;;;;;;;;;;21.90;43.90;;;;;;5091974;28;19931;-68
2023/03/31 06:01:10;;;;;;;;;;;21.90;43.90;;;;;;5091371;28;19924;-66
2023/03/31 06:03:36;;;;;;;;;;;22.00;43.80;;;;;;5089643;28;19947;-68
2023/03/31 06:06:04;;;;;;;;;;;22.00;43.70;;;;;;5087692;28;19954;-68
2023/03/31 06:08:30;;;;;;;;;;;22.10;43.50;;;;;;5089861;28;19931;-68
2023/03/31 06:10:55;;;;;;;;;;;22.10;43.50;;;;;;5091144;28;20363;-68
2023/03/31 06:13:21;;;;;;;;;;;22.10;43.50;;;;;;5082749;28;19920;-68
2023/03/31 06:15:54;;;;;;;;;;;22.10;43.50;;;;;;5085719;28;19931;-69
2023/03/31 06:18:20;;;;;;;;;;;22.10;43.50;;;;;;5088320;28;20513;-69
2023/03/31 06:20:45;;;;;;;;;;;22.00;43.50;;;;;;5088387;28;19924;-68
2023/03/31 06:23:11;;;;;;;;;;;22.10;43.50;;;;;;5090083;28;20349;-68
2023/03/31 06:25:36;;;;;;;;;;;22.00;43.90;;;;;;5087225;28;20382;-69
2023/03/31 06:28:02;;;;;;;;;;;22.10;43.50;;;;;;5082292;28;19928;-69
2023/03/31 06:30:28;;;;;;;;;;;22.00;43.50;;;;;;5087181;28;19928;-68
2023/03/31 06:32:53;;;;;;;;;;;22.00;43.50;;;;;;5079531;28;20347;-68
2023/03/31 06:35:19;;;;;;;;;;;22.00;43.50;;;;;;5070176;28;20329;-69
2023/03/31 06:37:44;;;;;;;;;;;22.00;43.40;;;;;;5069152;28;19926;-69
2023/03/31 06:40:10;;;;;;;;;;;22.00;43.40;;;;;;5068150;28;20383;-68
2023/03/31 06:42:35;;;;;;;;;;;22.00;43.60;;;;;;5073371;28;20582;-69
2023/03/31 06:45:01;;;;;;;;;;;22.00;43.60;;;;;;5071314;28;20742;-68
2023/03/31 06:47:26;;;;;;;;;;;22.00;43.60;;;;;;5061493;28;19935;-68
2023/03/31 06:49:52;;;;;;;;;;;22.00;43.60;;;;;;5066530;28;19920;-68
2023/03/31 06:52:17;;;;;;;;;;;22.00;43.60;;;;;;5067377;28;20819;-68
2023/03/31 06:54:43;;;;;;;;;;;22.00;43.50;;;;;;5067909;28;19924;-68
2023/03/31 06:57:08;;;;;;;;;;;22.00;43.40;;;;;;5068067;28;20493;-68
2023/03/31 06:59:34;;;;;;;;;;;22.00;43.40;;;;;;5067663;28;19939;-67
2023/03/31 07:01:59;;;;;;;;;;;22.00;43.40;;;;;;5068412;28;19928;-68
2023/03/31 07:04:25;;;;;;;;;;;22.00;43.40;;;;;;5068811;28;19931;-67
2023/03/31 07:06:50;;;;;;;;;;;22.00;43.40;;;;;;5072669;28;19924;-68
2023/03/31 07:09:17;;;;;;;;;;;22.00;43.30;;;;;;5069916;28;19932;-67
2023/03/31 07:11:42;;;;;;;;;;;22.00;43.30;;;;;;5072135;28;20022;-67
2023/03/31 07:14:08;;;;;;;;;;;22.00;43.30;;;;;;5072020;28;20019;-67
2023/03/31 07:16:35;;;;;;;;;;;22.00;43.20;;;;;;5076292;28;20378;-67
2023/03/31 07:19:02;;;;;;;;;;;22.00;43.30;;;;;;5071281;28;19975;-67
2023/03/31 07:21:27;;;;;;;;;;;22.00;43.20;;;;;;5071277;28;19947;-67
2023/03/31 07:23:53;;;;;;;;;;;22.00;43.20;;;;;;5073637;28;19925;-67
2023/03/31 07:26:18;;;;;;;;;;;22.10;43.20;;;;;;5070017;28;19925;-67
2023/03/31 07:28:44;;;;;;;;;;;22.00;43.20;;;;;;5070794;28;20399;-67
2023/03/31 07:31:12;;;;;;;;;;;22.00;43.20;;;;;;5072016;28;20051;-67
2023/03/31 07:33:37;;;;;;;;;;;22.00;43.30;;;;;;5068309;28;20314;-67
2023/03/31 07:36:04;;;;;;;;;;;22.00;43.30;;;;;;5072932;28;19931;-67
2023/03/31 07:38:29;;;;;;;;;;;22.00;43.30;;;;;;5070499;28;19928;-68
2023/03/31 07:40:55;;;;;;;;;;;22.00;43.20;;;;;;5074423;28;19998;-67
2023/03/31 07:43:20;;;;;;;;;;;22.00;43.20;;;;;;5067901;28;20652;-68
2023/03/31 07:45:46;;;;;;;;;;;22.00;43.20;;;;;;5063306;28;19935;-70
2023/03/31 07:48:11;;;;;;;;;;;22.00;43.20;;;;;;5070578;28;19931;-70
2023/03/31 07:50:37;;;;;;;;;;;22.00;43.20;;;;;;5103629;28;20054;-69
2023/03/31 07:53:02;;;;;;;;;;;22.00;43.20;;;;;;5070176;28;19921;-68
2023/03/31 07:55:28;;;;;;;;;;;22.10;43.30;;;;;;5067776;28;20647;-70
2023/03/31 07:57:53;;;;;;;;;;;22.10;43.20;;;;;;5071276;28;19928;-70
2023/03/31 08:00:20;;;;;;;;;;;22.10;43.20;;;;;;5069109;28;19929;-69
2023/03/31 08:02:45;;;;;;;;;;;22.00;43.20;;;;;;5068996;28;20622;-69
2023/03/31 08:05:12;;;;;;;;;;;22.10;43.20;;;;;;5069341;28;19932;-69
2023/03/31 08:07:38;;;;;;;;;;;22.00;43.20;;;;;;5071192;28;19928;-70
2023/03/31 08:10:05;;;;;;;;;;;22.00;43.20;;;;;;5074270;28;19924;-70
2023/03/31 08:12:30;;;;;;;;;;;22.00;43.30;;;;;;5074988;28;19939;-69
2023/03/31 08:14:56;;;;;;;;;;;22.00;43.30;;;;;;5071326;28;19928;-69
2023/03/31 08:17:21;;;;;;;;;;;22.00;43.20;;;;;;5102041;27;19976;-68
2023/03/31 08:19:47;;;;;;;;;;;22.00;43.20;;;;;;5074548;28;19936;-70
2023/03/31 08:22:12;;;;;;;;;;;22.00;43.20;;;;;;5077258;28;19924;-69
2023/03/31 08:24:38;;;;;;;;;;;22.00;43.20;;;;;;5070908;28;19923;-69
2023/03/31 08:27:03;;;;;;;;;;;22.00;43.30;;;;;;5075459;28;20002;-69
2023/03/31 08:29:29;;;;;;;;;;;22.00;43.40;;;;;;5061501;28;20298;-69
2023/03/31 08:31:54;;;;;;;;;;;22.00;43.30;;;;;;5071791;28;20002;-69
2023/03/31 08:34:20;;;;;;;;;;;22.00;43.30;;;;;;5074074;28;19920;-70
2023/03/31 08:36:46;;;;;;;;;;;22.00;43.30;;;;;;5072454;28;19998;-70
2023/03/31 08:39:12;;;;;;;;;;;22.00;43.30;;;;;;5078194;28;19932;-69
2023/03/31 08:44:38;;;;;;;;;;;22.00;43.40;;;;;;5090733;27;19928;-70
2023/03/31 08:47:05;;;;;;;;;;;21.90;43.40;;;;;;5074285;28;20902;-68
2023/03/31 08:49:36;;;;;;;;;;;22.00;43.40;;;;;;5073263;28;19924;-67
2023/03/31 08:52:03;;;;;;;;;;;22.00;43.40;;;;;;5082468;28;19920;-66
2023/03/31 08:54:38;;;;;;;;;;;22.00;43.90;;;;;;5078016;28;19936;-67
2023/03/31 08:57:09;;;;;;;;;;;21.90;43.90;;;;;;5111625;27;19920;-67
2023/03/31 08:59:36;;;;;;;;;;;21.90;44.00;;;;;;5077785;28;19972;-67
2023/03/31 09:07:34;;;;;;;;;;;21.90;43.90;;;;;;5088176;27;19920;-67
2023/03/31 09:10:20;;;;;;;;;;;22.00;43.90;;;;;;5085493;28;19928;-67
2023/03/31 09:12:52;;;;;;;;;;;22.00;43.90;;;;;;5119775;27;20042;-68
2023/03/31 09:15:26;;;;;;;;;;;22.00;43.90;;;;;;5089664;28;20459;-66
2023/03/31 09:17:54;;;;;;;;;;;21.90;43.80;;;;;;5093020;28;19926;-68
2023/03/31 09:20:24;;;;;;;;;;;21.90;43.90;;;;;;5083473;28;19955;-68
2023/03/31 09:22:54;;;;;;;;;;;22.00;43.90;;;;;;5080736;28;19928;-68
2023/03/31 09:25:24;;;;;;;;;;;22.00;43.90;;;;;;5080396;28;19939;-67
2023/03/31 09:27:51;;;;;;;;;;;22.00;43.90;;;;;;5086177;28;19924;-67
2023/03/31 09:30:20;;;;;;;;;;;22.00;43.80;;;;;;5083189;28;20315;-68
2023/03/31 09:32:48;;;;;;;;;;;22.00;43.80;;;;;;5085146;28;20020;-68
2023/03/31 09:35:17;;;;;;;;;;;21.90;43.80;;;;;;5116727;27;20336;-68
2023/03/31 09:37:43;;;;;;;;;;;22.00;43.90;;;;;;5089753;28;19932;-69
2023/03/31 09:40:14;;;;;;;;;;;22.00;43.90;;;;;;5086736;28;19928;-68
2023/03/31 09:42:40;;;;;;;;;;;21.90;43.90;;;;;;5085089;28;19924;-69
2023/03/31 09:45:06;;;;;;;;;;;22.00;43.90;;;;;;5082725;28;19924;-70
2023/03/31 09:47:37;;;;;;;;;;;22.00;43.80;;;;;;5085840;28;20372;-69
2023/03/31 09:50:03;;;;;;;;;;;22.00;43.80;;;;;;5085955;28;19924;-68
2023/03/31 09:52:31;;;;;;;;;;;22.00;43.90;;;;;;5086785;28;20017;-68
2023/03/31 09:54:59;;;;;;;;;;;22.00;43.80;;;;;;5085525;28;19924;-68
2023/03/31 09:57:26;;;;;;;;;;;21.90;43.80;;;;;;5088489;28;19931;-67
2023/03/31 09:59:52;;;;;;;;;;;21.90;43.80;;;;;;5084063;28;19929;-69
2023/03/31 10:02:34;;;;;;;;;;;21.90;43.80;;;;;;5086478;28;19924;-69
2023/03/31 10:05:00;;;;;;;;;;;21.90;43.90;;;;;;5116955;27;19967;-70
2023/03/31 10:07:26;;;;;;;;;;;21.90;44.00;;;;;;5081136;28;20005;-69
2023/03/31 10:09:53;;;;;;;;;;;22.00;44.10;;;;;;5087192;28;19928;-69
2023/03/31 10:12:23;;;;;;;;;;;22.00;44.10;;;;;;5091523;28;20362;-68
2023/03/31 10:14:50;;;;;;;;;;;21.90;44.00;;;;;;5118919;27;19920;-71
2023/03/31 10:17:17;;;;;;;;;;;21.90;44.10;;;;;;5078331;28;20430;-69
2023/03/31 10:19:46;;;;;;;;;;;21.90;44.20;;;;;;5076278;28;19931;-67
2023/03/31 10:22:15;;;;;;;;;;;21.90;44.10;;;;;;5077130;28;20011;-69
2023/03/31 10:24:41;;;;;;;;;;;22.00;44.40;;;;;;5072377;28;19928;-71
2023/03/31 10:27:27;;;;;;;;;;;22.00;44.40;;;;;;5074983;28;19985;-74
2023/03/31 10:29:55;;;;;;;;;;;22.00;44.50;;;;;;5077977;28;19935;-70
2023/03/31 10:32:23;;;;;;;;;;;22.00;44.50;;;;;;5074510;28;19994;-69
2023/03/31 10:34:49;;;;;;;;;;;21.90;44.50;;;;;;5104281;27;19926;-70
2023/03/31 10:37:17;;;;;;;;;;;21.90;44.50;;;;;;5070805;28;19985;-70
2023/03/31 10:39:43;;;;;;;;;;;21.90;44.50;;;;;;5104478;27;19924;-72
2023/03/31 10:42:09;;;;;;;;;;;22.00;44.60;;;;;;5100362;27;19978;-67
2023/03/31 10:44:36;;;;;;;;;;;21.90;44.70;;;;;;5065674;28;19924;-68
2023/03/31 10:47:04;;;;;;;;;;;21.90;44.90;;;;;;5072949;28;20118;-68
2023/03/31 10:49:35;;;;;;;;;;;22.00;45.90;;;;;;5068222;28;19928;-68
2023/03/31 10:52:01;;;;;;;;;;;21.90;45.80;;;;;;5063795;28;19931;-67
2023/03/31 10:54:27;;;;;;;;;;;21.90;46.00;;;;;;5068259;28;19974;-69
2023/03/31 10:56:55;;;;;;;;;;;21.90;45.80;;;;;;5074266;28;19923;-68
2023/03/31 11:04:45;;;;;;;;;;;21.90;46.70;;;;;;5083867;27;19924;-70
2023/03/31 11:07:19;;;;;;;;;;;21.90;46.60;;;;;;5072562;28;21043;-67
2023/03/31 11:10:05;;;;;;;;;;;21.90;47.20;;;;;;5063141;28;19925;-66
2023/03/31 11:12:35;;;;;;;;;;;21.90;47.30;;;;;;5071905;28;19925;-66
2023/03/31 11:15:12;;;;;;;;;;;21.90;48.00;;;;;;5067845;28;19924;-66
2023/03/31 11:17:57;;;;;;;;;;;21.80;47.60;;;;;;5066599;28;20371;-67
2023/03/31 11:20:31;;;;;;;;;;;21.90;47.90;;;;;;5072952;28;19947;-68
2023/03/31 11:25:43;;;;;;;;;;;21.80;48.20;;;;;;5069604;27;19939;-66
2023/03/31 11:28:22;;;;;;;;;;;21.90;48.70;;;;;;5062227;28;20257;-66
2023/03/31 11:30:51;;;;;;;;;;;21.80;48.70;;;;;;5049057;28;19948;-66
2023/03/31 11:36:24;;;;;;;;;;;21.80;49.10;;;;;;5095049;27;19923;-66
2023/03/31 11:41:41;;;;;;;;;;;21.70;49.40;;;;;;5075667;27;19923;-65
2023/03/31 11:44:10;;;;;;;;;;;21.80;49.40;;;;;;5108611;28;20694;-67
2023/03/31 11:46:46;;;;;;;;;;;21.70;49.40;;;;;;5069246;28;19924;-65
2023/03/31 11:49:18;;;;;;;;;;;21.70;49.30;;;;;;5073997;28;19925;-66
2023/03/31 11:51:54;;;;;;;;;;;21.80;49.40;;;;;;5106830;28;19931;-64
2023/03/31 11:54:24;;;;;;;;;;;21.70;49.40;;;;;;5108884;28;19930;-66
2023/03/31 11:56:51;;;;;;;;;;;21.80;49.50;;;;;;5075899;28;19931;-66
2023/03/31 11:59:18;;;;;;;;;;;21.80;49.50;;;;;;5077933;28;20030;-65
2023/03/31 12:04:42;;;;;;;;;;;21.80;49.60;;;;;;5066309;28;19921;-66
2023/03/31 12:07:21;;;;;;;;;;;21.80;49.70;;;;;;5068951;28;19925;-67
2023/03/31 12:12:32;;;;;;;;;;;21.80;49.80;;;;;;5053377;27;19921;-65
2023/03/31 12:17:42;;;;;;;;;;;21.80;49.80;;;;;;5081853;27;20417;-66
2023/03/31 12:20:13;;;;;;;;;;;21.80;49.70;;;;;;5070296;28;19924;-65
2023/03/31 12:22:42;;;;;;;;;;;21.80;49.70;;;;;;5077111;28;19959;-67
2023/03/31 12:25:11;;;;;;;;;;;21.90;49.80;;;;;;5072026;28;20137;-67
2023/03/31 12:30:19;;;;;;;;;;;21.80;49.80;;;;;;5076152;27;20294;-67
2023/03/31 12:32:47;;;;;;;;;;;21.80;50.00;;;;;;5074663;28;19929;-69
2023/03/31 12:35:18;;;;;;;;;;;21.80;50.10;;;;;;5083689;28;20015;-69
2023/03/31 12:38:04;;;;;;;;;;;21.80;50.10;;;;;;5048108;28;19925;-67
2023/03/31 12:40:40;;;;;;;;;;;21.80;51.00;;;;;;5076013;28;19929;-68
2023/03/31 12:43:26;;;;;;;;;;;21.80;50.60;;;;;;5049307;28;19973;-66
2023/03/31 12:46:16;;;;;;;;;;;21.80;50.80;;;;;;5046209;28;19924;-66
2023/03/31 12:49:02;;;;;;;;;;;21.80;50.90;;;;;;5045790;28;19935;-66
2023/03/31 12:57:04;;;;;;;;;;;21.80;50.80;;;;;;5061645;28;19921;-64
2023/03/31 12:59:32;;;;;;;;;;;21.80;50.90;;;;;;5048541;28;20525;-66
2023/03/31 13:04:53;;;;;;;;;;;21.60;51.40;;;;;;5064825;27;19927;-64
2023/03/31 13:10:20;;;;;;;;;;;21.70;51.50;;;;;;5073151;27;19927;-66
2023/03/31 13:13:03;;;;;;;;;;;21.80;51.50;;;;;;5069741;28;20583;-65
2023/03/31 13:15:29;;;;;;;;;;;21.80;51.50;;;;;;5067435;28;20002;-66
2023/03/31 13:17:56;;;;;;;;;;;21.80;51.40;;;;;;5068227;28;19964;-64
2023/03/31 13:20:28;;;;;;;;;;;21.80;51.30;;;;;;5068241;28;20022;-66
2023/03/31 13:22:59;;;;;;;;;;;21.80;51.30;;;;;;5071197;28;20789;-66
2023/03/31 13:28:17;;;;;;;;;;;21.80;51.30;;;;;;5081874;27;19917;-70
2023/03/31 13:30:44;;;;;;;;;;;21.80;51.20;;;;;;5073470;28;20531;-70
2023/03/31 13:33:14;;;;;;;;;;;21.80;51.10;;;;;;5081844;28;19927;-71
2023/03/31 13:35:43;;;;;;;;;;;21.80;51.10;;;;;;5084235;28;19924;-71
2023/03/31 13:38:28;;;;;;;;;;;21.80;51.00;;;;;;5085695;28;20326;-70
2023/03/31 13:40:59;;;;;;;;;;;21.80;50.80;;;;;;5078924;28;19951;-71
2023/03/31 13:43:45;;;;;;;;;;;21.80;50.70;;;;;;5065482;28;20475;-70
2023/03/31 13:49:14;;;;;;;;;;;21.80;50.50;;;;;;5106616;27;19914;-70
2023/03/31 13:52:00;;;;;;;;;;;21.80;50.40;;;;;;5102766;28;19924;-70
2023/03/31 13:57:34;;;;;;;;;;;21.80;50.30;;;;;;5084317;28;19919;-70
2023/03/31 14:00:11;;;;;;;;;;;21.80;50.10;;;;;;5084609;28;20464;-70
2023/03/31 14:02:57;;;;;;;;;;;21.90;50.10;;;;;;5081110;28;19951;-71
2023/03/31 14:08:12;;;;;;;;;;;21.90;49.90;;;;;;5105073;27;20401;-71
2023/03/31 14:10:40;;;;;;;;;;;21.90;49.90;;;;;;5105900;28;19977;-70
2023/03/31 14:15:51;;;;;;;;;;;21.80;49.80;;;;;;5083744;28;20398;-69
2023/03/31 14:18:22;;;;;;;;;;;21.80;49.90;;;;;;5074168;28;19924;-70
2023/03/31 14:20:53;;;;;;;;;;;21.70;50.00;;;;;;5063478;28;19925;-69
2023/03/31 14:23:27;;;;;;;;;;;21.70;50.10;;;;;;5066454;28;20002;-68
2023/03/31 14:28:45;;;;;;;;;;;21.60;50.40;;;;;;5105982;27;19916;-69
2023/03/31 14:31:20;;;;;;;;;;;21.50;50.50;;;;;;5127889;27;19924;-69
2023/03/31 14:34:07;;;;;;;;;;;21.50;50.60;;;;;;5103471;28;19924;-69
2023/03/31 14:36:46;;;;;;;;;;;21.40;50.70;;;;;;5102330;28;19927;-69
2023/03/31 14:39:13;;;;;;;;;;;21.40;51.00;;;;;;5103936;28;19935;-67
2023/03/31 14:41:38;;;;;;;;;;;21.30;51.20;;;;;;5104082;28;19920;-70
2023/03/31 14:44:05;;;;;;;;;;;21.20;51.20;;;;;;5102822;28;19927;-69
2023/03/31 14:46:35;;;;;;;;;;;21.20;51.40;;;;;;5103252;28;19932;-68
2023/03/31 14:49:05;;;;;;;;;;;21.20;51.50;;;;;;5104843;28;19920;-67
2023/03/31 14:51:31;;;;;;;;;;;21.10;51.70;;;;;;5104937;28;20030;-67
2023/03/31 14:53:57;;;;;;;;;;;21.00;51.80;;;;;;5096879;28;20011;-67
2023/03/31 14:56:32;;;;;;;;;;;21.00;52.00;;;;;;5088788;28;19930;-66
2023/03/31 14:58:58;;;;;;;;;;;20.90;52.10;;;;;;5105645;28;19920;-67
2023/03/31 15:01:27;;;;;;;;;;;20.80;52.40;;;;;;5106783;28;20358;-68
2023/03/31 15:03:53;;;;;;;;;;;20.70;52.20;;;;;;5105192;28;19992;-69
2023/03/31 15:06:18;;;;;;;;;;;20.70;52.50;;;;;;5105172;28;19920;-67
2023/03/31 15:08:44;;;;;;;;;;;20.70;52.80;;;;;;5106705;28;20399;-67
2023/03/31 15:11:14;;;;;;;;;;;20.60;52.80;;;;;;5105445;28;20371;-67
2023/03/31 15:13:41;;;;;;;;;;;20.60;52.90;;;;;;5104409;28;19959;-67
2023/03/31 15:16:27;;;;;;;;;;;20.50;53.10;;;;;;5106213;28;19924;-68
2023/03/31 15:18:53;;;;;;;;;;;20.50;53.10;;;;;;5129905;27;19966;-70
2023/03/31 15:21:21;;;;;;;;;;;20.40;53.30;;;;;;5104618;28;19924;-67
2023/03/31 15:23:49;;;;;;;;;;;20.40;53.50;;;;;;5105112;28;19930;-67
2023/03/31 15:26:17;;;;;;;;;;;20.40;54.30;;;;;;5106246;28;19920;-67
2023/03/31 15:28:50;;;;;;;;;;;20.40;53.60;;;;;;5108640;28;19923;-69
2023/03/31 15:31:15;;;;;;;;;;;20.30;53.70;;;;;;5108642;28;19928;-67
2023/03/31 15:33:41;;;;;;;;;;;20.30;53.70;;;;;;5108675;28;20116;-66
2023/03/31 15:36:07;;;;;;;;;;;20.20;53.80;;;;;;5126816;28;19961;-68
2023/03/31 15:38:33;;;;;;;;;;;20.20;53.90;;;;;;5131791;27;20012;-69
2023/03/31 15:40:59;;;;;;;;;;;20.20;54.10;;;;;;5094963;28;20429;-69
2023/03/31 15:43:27;;;;;;;;;;;20.20;54.00;;;;;;5096472;28;19920;-69